Time;durP1;ratioP1;P1;durP2;ratioP2;P2;SDS_P1;SDS_P2;PMS_P1;PMS_P2;Temp;Humidity;BMP_temperature;BMP_pressure;BME280_temperature;BME280_humidity;BME280_pressure;Samples;Min_cycle;Max_cycle;Signal;HPM_P1;HPM_P2
2022/02/12 00:00:33;;;;;;;20.67;5.80;;;0.80;95.70;;;;;;6277963;28;20059;-82
2022/02/12 00:03:37;;;;;;;16.52;5.05;;;0.80;95.70;;;;;;6276125;28;20418;-82
2022/02/12 00:06:39;;;;;;;9.90;4.93;;;0.80;95.50;;;;;;6283202;28;20048;-81
2022/02/12 00:09:41;;;;;;;24.63;6.20;;;0.80;95.40;;;;;;6299820;28;20040;-82
2022/02/12 00:12:43;;;;;;;19.02;6.22;;;0.80;95.30;;;;;;6301032;28;20102;-82
2022/02/12 00:15:44;;;;;;;17.80;6.05;;;0.80;95.30;;;;;;6299106;28;20090;-82
2022/02/12 00:18:48;;;;;;;18.95;6.20;;;0.80;95.30;;;;;;6299746;28;20131;-81
2022/02/12 00:21:49;;;;;;;18.13;5.85;;;0.70;95.20;;;;;;6299668;28;20073;-81
2022/02/12 00:24:51;;;;;;;17.52;5.97;;;0.70;95.20;;;;;;6300319;28;20055;-81
2022/02/12 00:27:53;;;;;;;23.27;6.60;;;0.70;95.20;;;;;;6299072;28;20119;-82
2022/02/12 00:30:55;;;;;;;18.33;6.82;;;0.70;95.20;;;;;;6299631;28;20063;-82
2022/02/12 00:33:58;;;;;;;9.95;6.10;;;0.70;95.50;;;;;;6299556;28;20048;-82
2022/02/12 00:37:00;;;;;;;16.20;6.68;;;0.60;95.10;;;;;;6288531;28;20048;-81
2022/02/12 00:40:02;;;;;;;14.90;6.68;;;0.60;95.20;;;;;;6299756;28;20125;-80
2022/02/12 00:43:04;;;;;;;13.90;6.85;;;0.60;95.10;;;;;;6298628;28;20469;-80
2022/02/12 00:46:05;;;;;;;19.35;5.47;;;0.60;95.20;;;;;;6299596;28;20120;-81
2022/02/12 00:49:09;;;;;;;18.98;6.55;;;0.60;95.10;;;;;;6300664;28;20458;-80
2022/02/12 00:52:10;;;;;;;16.30;5.60;;;0.50;95.10;;;;;;6300848;28;20040;-80
2022/02/12 00:55:12;;;;;;;27.90;6.47;;;0.50;95.10;;;;;;6300292;28;20040;-80
2022/02/12 00:58:14;;;;;;;15.48;6.10;;;0.50;95.00;;;;;;6301018;28;20514;-80
2022/02/12 01:01:16;;;;;;;16.05;6.00;;;0.50;95.00;;;;;;6300637;28;20171;-80
2022/02/12 01:04:19;;;;;;;21.70;7.20;;;0.50;95.20;;;;;;6301541;28;20099;-80
2022/02/12 01:07:21;;;;;;;13.98;6.15;;;0.60;94.90;;;;;;6287485;28;20052;-80
2022/02/12 01:10:23;;;;;;;16.98;7.07;;;0.60;94.80;;;;;;6301574;28;20524;-81
2022/02/12 01:13:25;;;;;;;13.25;5.88;;;0.50;94.90;;;;;;6302171;28;20053;-80
2022/02/12 01:16:26;;;;;;;12.48;5.80;;;0.50;94.90;;;;;;6299975;28;20075;-81
2022/02/12 01:19:29;;;;;;;18.08;7.05;;;0.40;94.90;;;;;;6299339;28;20049;-81
2022/02/12 01:22:31;;;;;;;15.68;6.50;;;0.40;95.10;;;;;;6299739;28;20044;-80
2022/02/12 01:25:33;;;;;;;16.58;6.15;;;0.40;95.10;;;;;;6299201;28;20093;-81
2022/02/12 01:28:35;;;;;;;18.83;6.95;;;0.40;95.00;;;;;;6304168;28;20137;-81
2022/02/12 01:31:37;;;;;;;15.23;6.35;;;0.40;95.00;;;;;;6304236;28;20052;-81
2022/02/12 01:34:40;;;;;;;27.48;6.45;;;0.30;94.90;;;;;;6300122;28;20061;-80
2022/02/12 01:37:42;;;;;;;14.52;5.50;;;0.30;94.80;;;;;;6295476;28;20045;-80
2022/02/12 01:40:45;;;;;;;15.32;5.82;;;0.30;94.80;;;;;;6304978;28;20052;-80
2022/02/12 01:43:47;;;;;;;15.32;5.68;;;0.30;94.80;;;;;;6274827;28;20532;-80
2022/02/12 01:46:49;;;;;;;16.15;5.65;;;0.30;94.80;;;;;;6286869;28;20516;-81
2022/02/12 01:49:52;;;;;;;9.48;5.32;;;0.20;94.60;;;;;;6297462;28;20120;-80
2022/02/12 01:52:54;;;;;;;16.73;7.30;;;0.20;94.60;;;;;;6304053;28;20557;-80
2022/02/12 01:55:56;;;;;;;16.98;7.45;;;0.20;94.60;;;;;;6303154;28;20430;-81
2022/02/12 01:58:57;;;;;;;18.20;7.38;;;0.10;94.70;;;;;;6304220;28;20048;-80
2022/02/12 02:02:00;;;;;;;18.73;6.30;;;0.10;94.70;;;;;;6303510;28;20048;-81
2022/02/12 02:05:03;;;;;;;11.13;6.00;;;0.10;94.70;;;;;;6300560;28;20474;-82
2022/02/12 02:08:06;;;;;;;15.77;7.28;;;0.10;94.60;;;;;;6296112;28;20053;-81
2022/02/12 02:11:08;;;;;;;10.82;5.68;;;0.10;94.60;;;;;;6304477;28;20101;-82
2022/02/12 02:14:11;;;;;;;20.85;6.40;;;0.20;94.70;;;;;;6304729;28;20079;-81
2022/02/12 02:17:13;;;;;;;25.27;6.82;;;0.10;94.70;;;;;;6305677;28;20494;-81
2022/02/12 02:20:16;;;;;;;20.50;6.13;;;0.10;94.60;;;;;;6264835;28;20053;-82
2022/02/12 02:23:19;;;;;;;14.13;6.22;;;0.10;94.70;;;;;;6253974;28;20053;-81
2022/02/12 02:26:21;;;;;;;19.45;7.70;;;0.10;94.70;;;;;;6253870;28;20046;-81
2022/02/12 02:29:23;;;;;;;24.85;6.88;;;0.10;94.60;;;;;;6254982;28;20589;-82
2022/02/12 02:32:25;;;;;;;16.10;6.35;;;0.10;94.60;;;;;;6254500;28;20046;-81
2022/02/12 02:35:27;;;;;;;26.45;7.65;;;0.10;94.60;;;;;;6253456;28;20048;-81
2022/02/12 02:38:31;;;;;;;17.20;6.93;;;0.20;94.60;;;;;;6286029;28;20064;-81
2022/02/12 02:41:33;;;;;;;24.55;7.22;;;0.20;94.60;;;;;;6278500;28;20396;-82
2022/02/12 02:44:35;;;;;;;21.02;8.88;;;0.20;94.70;;;;;;6279085;28;20124;-82
2022/02/12 02:47:42;;;;;;;27.65;8.25;;;0.20;94.80;;;;;;6278407;28;20041;-81
2022/02/12 02:57:23;;;;;;;19.40;7.75;;;0.20;94.60;;;;;;6277898;28;20045;-81
2022/02/12 03:00:25;;;;;;;30.85;10.50;;;0.20;94.50;;;;;;6279004;28;20503;-81
2022/02/12 03:03:27;;;;;;;22.08;7.85;;;0.20;94.50;;;;;;6278484;28;20049;-81
2022/02/12 03:06:30;;;;;;;25.33;9.13;;;0.20;94.40;;;;;;6270441;28;20658;-81
2022/02/12 03:09:33;;;;;;;15.50;6.63;;;0.20;94.40;;;;;;6286547;28;20448;-81
2022/02/12 03:12:35;;;;;;;31.55;8.57;;;0.30;94.60;;;;;;6279084;28;20057;-81
2022/02/12 03:15:39;;;;;;;25.13;8.57;;;0.30;94.30;;;;;;6277328;28;20041;-80
2022/02/12 03:18:42;;;;;;;20.08;7.60;;;0.20;94.20;;;;;;6277813;28;20557;-81
2022/02/12 03:21:44;;;;;;;16.08;6.65;;;0.20;94.20;;;;;;6277843;28;20124;-81
2022/02/12 03:24:47;;;;;;;15.27;7.57;;;0.10;94.20;;;;;;6282202;28;20055;-80
2022/02/12 03:27:53;;;;;;;15.32;7.40;;;0.10;94.40;;;;;;6280966;28;20110;-80
2022/02/12 03:30:54;;;;;;;12.43;6.57;;;0.00;94.30;;;;;;6279115;28;20049;-82
2022/02/12 03:33:56;;;;;;;18.13;7.78;;;0.00;94.50;;;;;;6278672;28;20044;-81
2022/02/12 03:36:58;;;;;;;16.90;7.40;;;0.00;94.40;;;;;;6288568;28;20049;-81
2022/02/12 03:40:01;;;;;;;23.25;7.55;;;0.00;94.50;;;;;;6302443;28;20048;-81
2022/02/12 03:43:03;;;;;;;16.33;7.40;;;0.00;94.80;;;;;;6302371;28;20071;-81
2022/02/12 03:46:05;;;;;;;11.25;6.80;;;0.10;94.90;;;;;;6302963;28;20043;-81
2022/02/12 03:49:07;;;;;;;16.55;6.85;;;0.10;94.80;;;;;;6301539;28;20128;-81
2022/02/12 03:52:09;;;;;;;17.55;6.13;;;0.10;94.40;;;;;;6302466;28;20052;-80
2022/02/12 03:55:12;;;;;;;20.75;5.95;;;0.10;94.40;;;;;;6302051;28;20131;-80
2022/02/12 03:58:17;;;;;;;12.73;7.13;;;0.10;94.30;;;;;;6300259;28;20792;-78
2022/02/12 04:01:19;;;;;;;18.05;6.85;;;0.10;94.20;;;;;;6299461;28;20059;-79
2022/02/12 04:04:21;;;;;;;20.75;8.02;;;0.00;94.30;;;;;;6299907;28;20052;-79
2022/02/12 04:07:23;;;;;;;21.02;7.95;;;0.00;94.30;;;;;;6290209;28;20044;-79
2022/02/12 04:10:27;;;;;;;17.75;5.70;;;0.00;94.30;;;;;;6299702;28;20040;-79
2022/02/12 04:13:30;;;;;;;20.17;6.55;;;0.00;94.20;;;;;;6299919;28;20512;-79
2022/02/12 04:16:32;;;;;;;16.65;7.03;;;0.00;94.10;;;;;;6298965;28;20520;-78
2022/02/12 04:19:34;;;;;;;14.98;6.43;;;-0.10;94.20;;;;;;6299001;28;20048;-79
2022/02/12 04:22:37;;;;;;;14.48;7.43;;;-0.10;94.10;;;;;;6298849;28;20441;-79
2022/02/12 04:25:40;;;;;;;14.07;6.47;;;-0.20;94.10;;;;;;6283638;28;20041;-79
2022/02/12 04:28:42;;;;;;;21.40;6.95;;;-0.20;94.00;;;;;;6249990;28;20138;-79
2022/02/12 04:31:44;;;;;;;16.17;6.68;;;-0.20;94.10;;;;;;6248830;28;20046;-79
2022/02/12 04:34:46;;;;;;;19.98;6.65;;;-0.20;94.20;;;;;;6251077;28;20049;-79
2022/02/12 04:37:48;;;;;;;15.30;7.28;;;-0.20;94.20;;;;;;6291506;28;20055;-79
2022/02/12 04:40:51;;;;;;;15.65;7.65;;;-0.20;94.30;;;;;;6299849;28;20055;-79
2022/02/12 04:43:53;;;;;;;15.90;7.53;;;-0.20;94.20;;;;;;6298603;28;20044;-79
2022/02/12 04:46:54;;;;;;;14.38;7.93;;;-0.20;94.20;;;;;;6298555;28;20414;-79
2022/02/12 04:49:56;;;;;;;13.48;6.57;;;-0.20;94.20;;;;;;6299126;28;20041;-79
2022/02/12 04:52:58;;;;;;;16.40;6.75;;;-0.30;94.10;;;;;;6298609;28;20552;-79
2022/02/12 04:56:01;;;;;;;19.10;6.53;;;-0.30;94.20;;;;;;6298013;28;20051;-79
2022/02/12 04:59:03;;;;;;;20.48;7.38;;;-0.30;94.10;;;;;;6298569;28;20059;-79
2022/02/12 05:02:05;;;;;;;32.70;8.07;;;-0.20;94.20;;;;;;6302685;28;20032;-79
2022/02/12 05:05:08;;;;;;;26.77;6.88;;;-0.20;94.20;;;;;;6301167;28;20129;-79
2022/02/12 05:08:10;;;;;;;20.15;8.55;;;-0.20;94.20;;;;;;6296523;28;20110;-79
2022/02/12 05:11:13;;;;;;;22.65;7.70;;;-0.20;94.30;;;;;;6304079;28;20110;-79
2022/02/12 05:14:16;;;;;;;15.07;6.88;;;-0.20;94.40;;;;;;6304341;28;20040;-79
2022/02/12 05:17:18;;;;;;;16.70;6.82;;;-0.20;94.60;;;;;;6303614;28;20044;-79
2022/02/12 05:20:20;;;;;;;18.33;7.35;;;-0.10;94.60;;;;;;6303007;28;20059;-79
2022/02/12 05:23:22;;;;;;;17.30;7.68;;;-0.10;94.70;;;;;;6302659;28;20047;-79
2022/02/12 05:26:25;;;;;;;14.07;7.60;;;0.00;94.80;;;;;;6301948;28;20108;-79
2022/02/12 05:29:27;;;;;;;23.63;8.82;;;0.00;94.60;;;;;;6302299;28;20063;-79
2022/02/12 05:32:29;;;;;;;17.15;8.05;;;0.00;94.60;;;;;;6302512;28;20413;-79
2022/02/12 05:35:31;;;;;;;26.27;8.07;;;0.00;94.80;;;;;;6294581;28;20045;-79
2022/02/12 05:38:32;;;;;;;23.40;8.18;;;0.10;95.00;;;;;;6285618;28;20060;-80
2022/02/12 05:41:36;;;;;;;24.90;8.13;;;0.10;94.80;;;;;;6277588;28;20128;-79
2022/02/12 05:44:38;;;;;;;18.70;9.07;;;0.10;94.70;;;;;;6277679;28;20052;-80
2022/02/12 05:47:40;;;;;;;18.63;8.70;;;0.10;94.70;;;;;;6278142;28;20049;-80
2022/02/12 05:50:42;;;;;;;25.15;9.18;;;0.10;94.70;;;;;;6278165;28;20391;-79
2022/02/12 05:53:43;;;;;;;18.88;8.07;;;0.10;94.70;;;;;;6277777;28;20449;-80
2022/02/12 05:56:47;;;;;;;19.30;8.13;;;0.10;94.60;;;;;;6278568;28;20467;-79
2022/02/12 05:59:48;;;;;;;16.35;7.22;;;0.10;94.60;;;;;;6279136;28;20053;-80
2022/02/12 06:02:50;;;;;;;22.02;8.18;;;0.10;94.80;;;;;;6277269;28;20045;-79
2022/02/12 06:05:52;;;;;;;21.52;9.60;;;0.10;94.80;;;;;;6286145;28;20048;-80
2022/02/12 06:08:54;;;;;;;20.45;7.07;;;0.10;94.80;;;;;;6296347;28;20625;-80
2022/02/12 06:11:57;;;;;;;22.73;10.50;;;0.10;95.00;;;;;;6298654;28;20086;-78
2022/02/12 06:15:00;;;;;;;18.23;8.50;;;0.20;95.10;;;;;;6298985;28;20059;-79
2022/02/12 06:18:01;;;;;;;17.55;8.13;;;0.10;95.20;;;;;;6299473;28;20045;-79
2022/02/12 06:21:06;;;;;;;11.60;5.90;;;0.20;95.30;;;;;;6298967;28;20144;-79
2022/02/12 06:24:08;;;;;;;15.82;8.98;;;0.20;95.30;;;;;;6299216;28;20056;-79
2022/02/12 06:27:11;;;;;;;19.60;7.75;;;0.20;95.30;;;;;;6298518;28;20044;-79
2022/02/12 06:30:13;;;;;;;24.98;10.18;;;0.20;95.30;;;;;;6298942;28;20040;-79
2022/02/12 06:33:15;;;;;;;15.75;8.15;;;0.30;95.30;;;;;;6298535;28;20129;-79
2022/02/12 06:36:17;;;;;;;21.92;8.50;;;0.30;95.30;;;;;;6290052;28;20510;-79
2022/02/12 06:39:18;;;;;;;18.40;9.48;;;0.30;95.30;;;;;;6297648;28;20048;-80
2022/02/12 06:42:21;;;;;;;20.42;10.80;;;0.30;95.20;;;;;;6301088;28;20040;-80
2022/02/12 06:45:23;;;;;;;20.25;8.27;;;0.30;95.10;;;;;;6300177;28;20422;-81
2022/02/12 06:48:25;;;;;;;21.00;10.57;;;0.40;95.10;;;;;;6301052;28;20049;-81
2022/02/12 06:51:27;;;;;;;23.27;8.65;;;0.40;95.10;;;;;;6300213;28;20675;-80
2022/02/12 06:54:29;;;;;;;20.67;10.05;;;0.50;95.00;;;;;;6299395;28;20509;-80
2022/02/12 06:57:32;;;;;;;28.52;11.85;;;0.50;95.00;;;;;;6299840;28;20051;-80
2022/02/12 07:00:33;;;;;;;25.13;10.65;;;0.50;94.90;;;;;;6299957;28;20193;-82
2022/02/12 07:03:36;;;;;;;28.92;12.48;;;0.60;94.80;;;;;;6299470;28;20067;-80
2022/02/12 07:06:38;;;;;;;22.85;11.80;;;0.60;94.70;;;;;;6291135;28;20044;-80
2022/02/12 07:09:40;;;;;;;32.35;11.77;;;0.70;94.70;;;;;;6250486;28;20052;-81
2022/02/12 07:12:43;;;;;;;25.08;10.88;;;0.70;94.60;;;;;;6250758;28;20491;-80
2022/02/12 07:15:45;;;;;;;31.25;13.20;;;0.80;94.60;;;;;;6249836;28;20176;-80
2022/02/12 07:18:48;;;;;;;25.92;12.48;;;0.90;94.50;;;;;;6249598;28;20429;-79
2022/02/12 07:21:50;;;;;;;28.10;13.50;;;1.00;94.30;;;;;;6252121;28;20595;-80
2022/02/12 07:24:52;;;;;;;31.27;10.85;;;1.00;94.30;;;;;;6256401;28;20053;-81
2022/02/12 07:27:56;;;;;;;25.92;11.13;;;1.10;94.30;;;;;;6254823;28;20057;-81
2022/02/12 07:30:58;;;;;;;29.52;12.73;;;1.20;94.70;;;;;;6256962;28;20694;-81
2022/02/12 07:34:00;;;;;;;33.08;13.15;;;1.40;94.40;;;;;;6255101;28;20491;-81
2022/02/12 07:37:02;;;;;;;28.65;11.25;;;1.60;94.50;;;;;;6289761;28;20059;-81
2022/02/12 07:40:05;;;;;;;25.52;11.05;;;1.90;94.50;;;;;;6304413;28;20095;-81
2022/02/12 07:43:08;;;;;;;17.98;9.57;;;2.00;93.70;;;;;;6304751;28;20045;-81
2022/02/12 07:46:10;;;;;;;33.17;15.88;;;2.10;93.30;;;;;;6303289;28;20037;-81
2022/02/12 07:49:11;;;;;;;80.18;46.15;;;2.20;93.40;;;;;;6306658;28;20045;-81
2022/02/12 07:52:13;;;;;;;30.92;19.00;;;2.30;93.90;;;;;;6304742;28;20074;-81
2022/02/12 07:55:16;;;;;;;53.95;36.55;;;2.50;93.80;;;;;;6303241;28;20064;-81
2022/02/12 07:58:20;;;;;;;28.77;13.13;;;2.60;93.60;;;;;;6303581;28;20132;-80
2022/02/12 08:01:21;;;;;;;42.58;14.68;;;2.80;92.80;;;;;;6304019;28;20063;-81
2022/02/12 08:04:23;;;;;;;29.25;13.02;;;2.90;92.80;;;;;;6302806;28;20106;-81
2022/02/12 08:07:31;;;;;;;24.80;10.25;;;3.00;92.50;;;;;;6292462;28;20053;-81
2022/02/12 08:13:54;;;;;;;31.48;11.52;;;3.20;92.60;;;;;;6303672;28;19921;-81
2022/02/12 08:16:56;;;;;;;20.45;9.68;;;3.30;92.20;;;;;;6304017;28;20551;-81
2022/02/12 08:19:58;;;;;;;27.85;15.50;;;3.50;92.20;;;;;;6302912;28;20575;-81
2022/02/12 08:22:59;;;;;;;24.70;10.50;;;3.60;92.10;;;;;;6302177;28;20052;-80
2022/02/12 08:26:01;;;;;;;16.65;10.18;;;3.80;92.30;;;;;;6302440;28;20095;-81
2022/02/12 08:29:04;;;;;;;20.27;10.25;;;3.90;94.80;;;;;;6303718;28;20045;-81
2022/02/12 08:32:07;;;;;;;19.27;8.57;;;4.00;96.00;;;;;;6303918;28;20048;-81
2022/02/12 08:35:10;;;;;;;22.00;9.13;;;4.00;96.20;;;;;;6282582;28;20045;-81
2022/02/12 08:38:12;;;;;;;17.42;8.95;;;4.10;96.80;;;;;;6270402;28;20041;-82
2022/02/12 08:41:14;;;;;;;26.65;9.85;;;4.30;97.10;;;;;;6278680;28;20052;-82
2022/02/12 08:44:18;;;;;;;24.58;9.57;;;4.60;97.20;;;;;;6230619;28;20084;-82
2022/02/12 08:47:20;;;;;;;18.63;8.98;;;4.90;97.30;;;;;;6230592;28;20045;-82
2022/02/12 08:50:22;;;;;;;15.25;6.90;;;5.30;97.10;;;;;;6230870;28;20050;-82
2022/02/12 08:53:24;;;;;;;17.63;6.10;;;5.60;96.80;;;;;;6231733;28;20049;-82
2022/02/12 08:56:26;;;;;;;13.52;4.90;;;6.10;96.00;;;;;;6242729;28;20433;-82
2022/02/12 08:59:30;;;;;;;9.15;4.90;;;6.50;95.40;;;;;;6239802;28;20467;-82
2022/02/12 09:02:32;;;;;;;18.40;5.75;;;6.80;94.10;;;;;;6246178;28;20052;-84
2022/02/12 09:05:35;;;;;;;13.38;4.65;;;6.90;92.60;;;;;;6245925;28;20070;-83
2022/02/12 09:08:36;;;;;;;6.60;4.82;;;6.90;91.60;;;;;;6254102;28;20115;-83
2022/02/12 09:11:40;;;;;;;16.63;5.40;;;7.30;91.10;;;;;;6278726;28;20052;-83
2022/02/12 09:14:43;;;;;;;14.35;4.78;;;7.50;91.10;;;;;;6278728;28;20057;-84
2022/02/12 09:17:45;;;;;;;14.95;5.70;;;7.80;90.90;;;;;;6261336;28;20475;-83
2022/02/12 09:20:46;;;;;;;10.48;5.03;;;8.30;90.80;;;;;;6254791;28;20081;-82
2022/02/12 09:23:48;;;;;;;11.68;4.80;;;8.50;89.90;;;;;;6256235;28;20056;-83
2022/02/12 09:26:50;;;;;;;12.05;4.57;;;8.90;87.30;;;;;;6255802;28;20056;-83
2022/02/12 09:29:58;;;;;;;9.05;4.78;;;9.10;83.40;;;;;;6257614;28;20083;-82
2022/02/12 09:33:00;;;;;;;13.07;5.15;;;9.00;79.60;;;;;;6257183;28;20064;-82
2022/02/12 09:36:02;;;;;;;22.00;8.60;;;8.90;80.60;;;;;;6261784;28;20048;-82
2022/02/12 09:39:04;;;;;;;16.45;5.15;;;8.90;76.60;;;;;;6275342;28;20423;-82
2022/02/12 09:42:06;;;;;;;20.77;5.78;;;8.70;76.60;;;;;;6282771;28;20051;-83
2022/02/12 09:45:10;;;;;;;13.52;4.05;;;8.60;76.90;;;;;;6281370;28;20055;-82
2022/02/12 09:48:15;;;;;;;17.55;5.03;;;8.60;76.80;;;;;;6282985;28;20548;-82
2022/02/12 09:51:18;;;;;;;6.65;3.33;;;8.80;78.80;;;;;;6283885;28;20041;-82
2022/02/12 09:54:20;;;;;;;11.63;3.65;;;8.80;74.30;;;;;;6283106;28;20521;-81
2022/02/12 09:57:21;;;;;;;13.57;4.95;;;8.60;74.00;;;;;;6288099;28;20049;-83
2022/02/12 10:00:25;;;;;;;32.72;16.33;;;8.80;74.80;;;;;;6286900;28;20053;-82
2022/02/12 10:03:27;;;;;;;8.57;4.53;;;9.00;74.20;;;;;;6282903;28;20127;-81
2022/02/12 10:06:42;;;;;;;13.63;5.05;;;9.10;72.20;;;;;;6276329;28;20045;-82
2022/02/12 10:09:44;;;;;;;8.57;3.58;;;9.20;72.30;;;;;;6235756;28;20038;-82
2022/02/12 10:12:46;;;;;;;10.32;3.65;;;9.30;71.80;;;;;;6235435;28;20049;-83
2022/02/12 10:15:54;;;;;;;11.80;3.67;;;9.50;73.20;;;;;;6235259;28;20045;-82
2022/02/12 10:18:58;;;;;;;11.93;3.83;;;10.00;73.60;;;;;;6248542;28;20657;-82
2022/02/12 10:22:09;;;;;;;10.88;3.95;;;10.40;69.20;;;;;;6235477;28;20046;-82
2022/02/12 10:25:10;;;;;;;7.07;3.45;;;10.60;68.10;;;;;;6232442;28;20046;-83
2022/02/12 10:28:15;;;;;;;12.45;4.25;;;10.90;68.10;;;;;;6231574;28;20046;-83
2022/02/12 10:31:18;;;;;;;9.32;3.20;;;11.20;65.80;;;;;;6229208;28;20107;-83
2022/02/12 10:34:20;;;;;;;12.80;3.35;;;11.50;63.80;;;;;;6229459;28;20054;-83
2022/02/12 10:37:23;;;;;;;10.50;4.43;;;11.70;63.70;;;;;;6265784;28;20136;-83
2022/02/12 10:40:25;;;;;;;11.18;4.75;;;12.00;63.80;;;;;;6281697;28;20045;-81
2022/02/12 10:43:28;;;;;;;11.30;3.75;;;12.10;59.40;;;;;;6243160;28;20569;-83
2022/02/12 10:46:31;;;;;;;9.77;3.10;;;11.90;58.80;;;;;;6231994;28;20053;-82
2022/02/12 10:49:33;;;;;;;10.63;3.10;;;11.80;58.90;;;;;;6233404;28;20057;-83
2022/02/12 10:52:45;;;;;;;5.53;2.85;;;11.80;58.90;;;;;;6233260;28;20050;-83
2022/02/12 10:55:47;;;;;;;14.93;3.72;;;11.90;59.30;;;;;;6232666;28;20128;-83
2022/02/12 10:58:49;;;;;;;12.88;4.05;;;11.70;58.90;;;;;;6231088;28;20121;-83
2022/02/12 11:01:54;;;;;;;9.65;3.95;;;11.80;62.40;;;;;;6231821;28;20096;-83
2022/02/12 11:04:58;;;;;;;8.57;3.30;;;12.00;59.30;;;;;;6240558;28;20053;-83
2022/02/12 11:08:00;;;;;;;8.25;3.13;;;12.10;58.00;;;;;;6269347;28;20071;-81
2022/02/12 11:11:02;;;;;;;10.07;3.03;;;12.00;59.00;;;;;;6284426;28;20104;-82
2022/02/12 11:14:04;;;;;;;8.43;3.45;;;12.30;60.40;;;;;;6280986;28;20057;-82
2022/02/12 11:17:11;;;;;;;9.88;2.90;;;12.60;60.80;;;;;;6279360;28;20055;-82
2022/02/12 11:20:13;;;;;;;9.68;3.35;;;13.10;57.70;;;;;;6253331;28;20053;-82
2022/02/12 11:23:28;;;;;;;12.15;3.78;;;13.50;60.00;;;;;;6255227;28;20147;-82
2022/02/12 11:26:39;;;;;;;7.18;2.95;;;13.80;58.80;;;;;;6255968;28;20053;-83
2022/02/12 11:29:42;;;;;;;12.23;2.95;;;14.10;55.10;;;;;;6255955;28;20037;-82
2022/02/12 11:32:46;;;;;;;9.85;4.35;;;14.30;55.80;;;;;;6256905;28;20084;-83
2022/02/12 11:36:19;;;;;;;5.22;2.42;;;14.70;57.00;;;;;;6263314;28;20064;-84
2022/02/12 11:39:28;;;;;;;8.05;2.90;;;15.00;51.00;;;;;;6271065;28;20041;-83
2022/02/12 11:42:41;;;;;;;12.95;6.82;;;15.10;51.60;;;;;;6278078;28;20075;-83
2022/02/12 11:45:45;;;;;;;6.45;2.78;;;15.20;54.20;;;;;;6282461;28;20105;-83
2022/02/12 11:48:48;;;;;;;10.90;3.53;;;15.50;52.90;;;;;;6281583;28;20045;-83
2022/02/12 11:51:50;;;;;;;7.97;2.72;;;15.50;50.60;;;;;;6279104;28;20422;-83
2022/02/12 11:55:00;;;;;;;9.20;3.33;;;15.50;52.20;;;;;;6277886;28;20051;-83
2022/02/12 11:58:02;;;;;;;5.35;3.28;;;15.60;52.10;;;;;;6278735;28;20040;-83
2022/02/12 12:01:04;;;;;;;9.65;2.90;;;15.60;51.20;;;;;;6281232;28;20057;-83
2022/02/12 12:04:14;;;;;;;13.55;3.55;;;15.50;48.50;;;;;;6280412;28;20069;-83
2022/02/12 12:07:15;;;;;;;12.77;3.00;;;15.10;49.60;;;;;;6263764;28;20045;-83
2022/02/12 12:10:17;;;;;;;7.00;2.90;;;15.00;52.50;;;;;;6279112;28;20041;-83
2022/02/12 12:13:42;;;;;;;8.93;2.55;;;15.10;49.60;;;;;;6279049;28;20057;-83
2022/02/12 12:16:53;;;;;;;5.78;2.65;;;15.20;48.90;;;;;;6276785;28;20418;-83
2022/02/12 12:19:56;;;;;;;7.60;2.08;;;14.80;47.10;;;;;;6264515;28;20113;-81
2022/02/12 12:23:01;;;;;;;11.07;2.60;;;14.40;48.40;;;;;;6245209;28;20511;-83
2022/02/12 12:26:04;;;;;;;5.13;2.10;;;14.10;48.90;;;;;;6251290;28;20049;-83
2022/02/12 12:32:34;;;;;;;7.65;1.85;;;13.60;47.50;;;;;;6254190;28;20123;-82
2022/02/12 12:35:37;;;;;;;6.93;1.98;;;13.30;49.40;;;;;;6258333;28;20040;-83
2022/02/12 12:38:41;;;;;;;2.97;1.60;;;13.30;51.00;;;;;;6261386;28;20049;-83
2022/02/12 12:41:43;;;;;;;7.00;3.05;;;13.30;48.60;;;;;;6251048;28;20049;-83
2022/02/12 12:44:58;;;;;;;5.63;2.08;;;13.10;48.10;;;;;;6254152;28;20128;-82
2022/02/12 12:48:00;;;;;;;5.10;1.98;;;13.10;52.30;;;;;;6252477;28;20227;-84
2022/02/12 12:51:03;;;;;;;6.00;2.00;;;13.50;51.10;;;;;;6254919;28;20060;-82
2022/02/12 12:54:05;;;;;;;5.65;2.60;;;13.70;48.40;;;;;;6253401;28;20049;-83
2022/02/12 12:57:08;;;;;;;9.77;2.50;;;13.70;50.60;;;;;;6253534;28;20081;-82
2022/02/12 13:00:11;;;;;;;9.93;3.00;;;13.60;47.90;;;;;;6254590;28;20064;-82
2022/02/12 13:03:13;;;;;;;6.82;2.55;;;13.30;47.90;;;;;;6254769;28;20125;-83
2022/02/12 13:06:16;;;;;;;5.70;2.58;;;13.20;49.10;;;;;;6254052;28;20041;-85
2022/02/12 13:09:19;;;;;;;5.30;2.88;;;13.10;48.70;;;;;;6268313;28;20053;-85
2022/02/12 13:12:30;;;;;;;5.78;2.58;;;13.00;52.10;;;;;;6271832;28;20069;-85
2022/02/12 13:15:36;;;;;;;5.60;2.25;;;13.00;49.80;;;;;;6267601;28;20041;-85
2022/02/12 13:18:38;;;;;;;5.25;2.42;;;12.90;50.20;;;;;;6271087;28;20490;-85
2022/02/12 13:21:50;;;;;;;11.05;2.30;;;12.50;50.80;;;;;;6258431;28;20415;-84
2022/02/12 13:24:54;;;;;;;5.07;2.42;;;12.50;51.40;;;;;;6253049;28;20053;-85
2022/02/12 13:27:57;;;;;;;4.88;3.03;;;12.40;53.30;;;;;;6253695;28;20053;-84
2022/02/12 13:31:00;;;;;;;6.80;2.90;;;12.40;52.30;;;;;;6254169;28;20046;-84
2022/02/12 13:34:02;;;;;;;4.03;2.15;;;12.30;52.90;;;;;;6254028;28;20511;-85
2022/02/12 13:37:08;;;;;;;8.40;3.85;;;12.20;51.80;;;;;;6261596;28;20548;-84
2022/02/12 13:40:14;;;;;;;6.10;3.00;;;12.20;53.90;;;;;;6280978;28;20049;-84
2022/02/12 13:43:19;;;;;;;9.18;2.80;;;12.20;52.40;;;;;;6279115;28;20056;-84
2022/02/12 13:46:21;;;;;;;8.32;3.05;;;12.10;54.40;;;;;;6276475;28;20075;-84
2022/02/12 13:49:27;;;;;;;5.90;2.33;;;12.30;52.70;;;;;;6276980;28;20494;-84
2022/02/12 13:52:30;;;;;;;7.30;3.17;;;12.40;53.00;;;;;;6279840;28;20191;-84
2022/02/12 13:55:33;;;;;;;2.95;1.63;;;12.40;51.60;;;;;;6278580;28;20063;-84
2022/02/12 13:58:35;;;;;;;5.05;1.08;;;12.60;51.90;;;;;;6278202;28;20041;-85
2022/02/12 14:01:37;;;;;;;4.35;1.30;;;12.80;48.90;;;;;;6276832;28;20049;-84
2022/02/12 14:04:39;;;;;;;6.03;1.52;;;13.00;45.70;;;;;;6274327;28;20053;-84
2022/02/12 14:07:42;;;;;;;3.78;1.75;;;13.20;47.60;;;;;;6270668;28;20564;-84
2022/02/12 14:10:44;;;;;;;5.38;2.45;;;13.20;50.40;;;;;;6277125;28;20064;-83
2022/02/12 14:13:47;;;;;;;5.28;2.08;;;13.00;51.60;;;;;;6275203;28;20425;-84
2022/02/12 14:16:49;;;;;;;6.40;2.28;;;13.10;51.20;;;;;;6276741;28;20139;-85
2022/02/12 14:19:51;;;;;;;5.78;2.30;;;13.10;55.60;;;;;;6263443;28;20046;-82
2022/02/12 14:22:54;;;;;;;4.85;2.22;;;13.10;47.00;;;;;;6253478;28;20051;-85
2022/02/12 14:25:56;;;;;;;6.60;1.33;;;12.90;50.20;;;;;;6256087;28;20137;-84
2022/02/12 14:28:58;;;;;;;3.28;1.17;;;12.90;49.90;;;;;;6253284;28;20172;-83
2022/02/12 14:32:00;;;;;;;7.50;2.00;;;12.70;48.90;;;;;;6253976;28;20046;-84
2022/02/12 14:35:02;;;;;;;3.97;1.65;;;12.60;49.10;;;;;;6255248;28;20056;-83
2022/02/12 14:38:06;;;;;;;11.02;3.40;;;12.40;47.80;;;;;;6269476;28;20053;-83
2022/02/12 14:41:11;;;;;;;2.60;1.20;;;12.20;49.10;;;;;;6277595;28;20178;-83
2022/02/12 14:44:13;;;;;;;1.98;0.95;;;12.30;51.30;;;;;;6278728;28;20485;-84
2022/02/12 14:47:14;;;;;;;2.38;1.35;;;12.40;52.60;;;;;;6276835;28;20052;-83
2022/02/12 14:50:16;;;;;;;3.50;1.08;;;12.50;52.40;;;;;;6277960;28;20183;-83
2022/02/12 14:53:21;;;;;;;6.70;1.20;;;12.60;49.10;;;;;;6276799;28;20517;-82
2022/02/12 14:56:23;;;;;;;2.38;0.70;;;12.70;51.90;;;;;;6279081;28;20130;-82
2022/02/12 14:59:25;;;;;;;2.50;0.95;;;12.90;46.40;;;;;;6277877;28;20134;-82
2022/02/12 15:02:26;;;;;;;2.58;0.60;;;12.90;52.00;;;;;;6275755;28;20046;-83
2022/02/12 15:05:28;;;;;;;4.57;1.23;;;12.70;43.70;;;;;;6257786;28;20037;-80
2022/02/12 15:08:32;;;;;;;1.50;0.85;;;12.50;45.50;;;;;;6251196;28;20488;-80
2022/02/12 15:11:34;;;;;;;5.90;0.77;;;12.50;45.20;;;;;;6259612;28;20068;-79
2022/02/12 15:14:35;;;;;;;5.97;1.00;;;12.40;43.90;;;;;;6250421;28;20056;-80
2022/02/12 15:17:37;;;;;;;4.93;1.08;;;12.20;43.90;;;;;;6250799;28;20048;-81
2022/02/12 15:20:39;;;;;;;3.97;0.93;;;11.90;46.50;;;;;;6251936;28;20072;-82
2022/02/12 15:23:42;;;;;;;3.42;0.95;;;11.80;46.80;;;;;;6250169;28;20041;-80
2022/02/12 15:26:44;;;;;;;5.35;1.30;;;11.60;47.50;;;;;;6249836;28;20053;-81
2022/02/12 15:29:46;;;;;;;1.35;0.68;;;11.50;49.50;;;;;;6249211;28;20075;-81
2022/02/12 15:32:48;;;;;;;2.75;0.98;;;11.50;53.80;;;;;;6249339;28;20060;-82
2022/02/12 15:35:49;;;;;;;4.65;0.95;;;11.50;49.00;;;;;;6252616;28;20266;-79
2022/02/12 15:38:52;;;;;;;2.00;1.00;;;11.30;50.30;;;;;;6266918;28;20415;-79
2022/02/12 15:41:55;;;;;;;4.30;2.10;;;11.10;53.00;;;;;;6272515;28;20411;-80
2022/02/12 15:44:57;;;;;;;1.90;0.90;;;10.90;51.90;;;;;;6272995;28;20095;-81
2022/02/12 15:47:59;;;;;;;5.85;1.17;;;10.80;49.90;;;;;;6274303;28;20048;-81
2022/02/12 15:51:01;;;;;;;2.00;0.90;;;10.60;53.20;;;;;;6273947;28;20522;-80
2022/02/12 15:54:04;;;;;;;7.13;2.05;;;10.50;58.00;;;;;;6273317;28;20398;-81
2022/02/12 15:57:07;;;;;;;0.85;0.60;;;10.50;58.70;;;;;;6273705;28;20147;-81
2022/02/12 16:00:10;;;;;;;5.63;1.13;;;10.40;61.70;;;;;;6277222;28;20041;-81
2022/02/12 16:03:12;;;;;;;3.83;1.00;;;10.30;64.70;;;;;;6275660;28;20045;-82